createdAt,value
2022-10-14T00:00:04.608Z,101604.03
2022-10-14T00:05:01.298Z,101593.69
2022-10-14T00:09:50.682Z,101591.97
2022-10-14T00:14:47.836Z,101579.88
2022-10-14T00:19:37.476Z,101567.78
2022-10-14T00:24:29.182Z,101562.66
2022-10-14T00:29:20.580Z,101559.22
2022-10-14T00:34:16.275Z,101541.13
2022-10-14T00:39:06.413Z,101533.34
2022-10-14T00:44:01.167Z,101518.69
2022-10-14T00:48:50.701Z,101506.59
2022-10-14T00:53:45.165Z,101508.34
2022-10-14T00:58:35.197Z,101504.91
2022-10-14T01:03:25.956Z,101511.84
2022-10-14T01:08:21.186Z,101498.91
2022-10-14T01:13:24.796Z,101492.00
2022-10-14T01:18:22.832Z,101497.19
2022-10-14T01:23:24.322Z,101493.75
2022-10-14T01:28:21.935Z,101494.63
2022-10-14T01:33:18.748Z,101497.22
2022-10-14T01:38:14.886Z,101482.53
2022-10-14T01:43:07.584Z,101499.84
2022-10-14T01:47:57.593Z,101494.66
2022-10-14T01:52:56.517Z,101486.03
2022-10-14T01:57:47.292Z,101489.53
2022-10-14T02:02:38.906Z,101484.34
2022-10-14T02:07:30.630Z,101479.16
2022-10-14T02:12:28.301Z,101474.81
2022-10-14T02:17:22.243Z,101465.34
2022-10-14T02:22:13.594Z,101467.06
2022-10-14T02:27:04.398Z,101469.66
2022-10-14T02:32:01.567Z,101461.88
2022-10-14T02:36:54.985Z,101449.78
2022-10-14T02:41:45.500Z,101447.19
2022-10-14T02:46:35.432Z,101437.69
2022-10-14T02:51:27.508Z,101427.31
2022-10-14T02:56:17.067Z,101423.84
2022-10-14T03:01:13.857Z,101392.66
2022-10-14T03:06:04.296Z,101411.75
2022-10-14T03:10:56.525Z,101416.06
2022-10-14T03:15:46.209Z,101404.81
2022-10-14T03:20:37.859Z,101401.41
2022-10-14T03:25:32.010Z,101397.94
2022-10-14T03:30:38.883Z,101385.81
2022-10-14T03:35:35.454Z,101382.38
2022-10-14T03:40:30.272Z,101372.81
2022-10-14T03:45:24.353Z,101367.66
2022-10-14T03:50:18.414Z,101364.22
2022-10-14T03:55:15.015Z,101357.28
2022-10-14T04:00:09.394Z,101359.03
2022-10-14T04:05:07.503Z,101351.22
2022-10-14T04:10:07.620Z,101340.84
2022-10-14T04:14:59.231Z,101348.63
2022-10-14T04:19:53.931Z,101346.03
2022-10-14T04:24:44.039Z,101345.19
2022-10-14T04:29:36.605Z,101337.41
2022-10-14T04:34:36.683Z,101340.00
2022-10-14T04:39:29.244Z,101327.88
2022-10-14T04:44:21.376Z,101327.03
2022-10-14T04:49:16.824Z,101321.00
2022-10-14T04:54:14.403Z,101310.63
2022-10-14T04:59:14.424Z,101308.88
2022-10-14T05:04:31.189Z,101297.63
2022-10-14T05:09:24.956Z,101290.72
2022-10-14T05:14:15.242Z,101282.94
2022-10-14T05:19:07.874Z,101282.94
2022-10-14T05:24:10.945Z,101275.16
2022-10-14T05:29:02.390Z,101268.25
2022-10-14T05:33:54.398Z,101266.53
2022-10-14T05:38:47.156Z,101264.78
2022-10-14T05:43:41.741Z,101257.88
2022-10-14T05:48:34.109Z,101250.09
2022-10-14T05:53:25.779Z,101241.44
2022-10-14T05:58:17.809Z,101241.44
2022-10-14T06:03:15.897Z,101242.31
2022-10-14T06:08:06.021Z,101237.13
2022-10-14T06:13:02.475Z,101233.66
2022-10-14T06:17:57.875Z,101239.72
2022-10-14T06:22:53.636Z,101234.53
2022-10-14T06:27:43.128Z,101234.53
2022-10-14T06:32:32.759Z,101225.00
2022-10-14T06:37:22.238Z,101235.38
2022-10-14T06:42:14.334Z,101227.63
2022-10-14T06:47:04.034Z,101215.50
2022-10-14T06:51:54.967Z,101214.63
2022-10-14T06:56:44.471Z,101220.69
2022-10-14T07:01:39.184Z,101218.97
2022-10-14T07:06:31.039Z,101218.94
2022-10-14T07:11:22.983Z,101220.72
2022-10-14T07:16:12.548Z,101223.31
2022-10-14T07:21:07.564Z,101215.53
2022-10-14T07:25:58.752Z,101210.31
2022-10-14T07:30:48.236Z,101219.81
2022-10-14T07:35:40.234Z,101221.56
2022-10-14T07:40:32.624Z,101211.19
2022-10-14T07:45:23.087Z,101218.13
2022-10-14T07:50:13.027Z,101216.38
2022-10-14T07:55:08.327Z,101208.59
2022-10-14T08:00:00.521Z,101202.53
2022-10-14T08:04:50.098Z,101205.97
2022-10-14T08:09:39.919Z,101208.56
2022-10-14T08:14:29.466Z,101206.84
2022-10-14T08:19:21.995Z,101207.69
2022-10-14T08:24:11.614Z,101199.91
2022-10-14T08:29:01.568Z,101194.69
2022-10-14T08:33:51.355Z,101205.94
2022-10-14T08:38:43.968Z,101203.34
2022-10-14T08:43:36.342Z,101199.00
2022-10-14T08:48:30.487Z,101209.41
2022-10-14T08:53:22.051Z,101197.28
2022-10-14T08:58:17.054Z,101195.53
2022-10-14T09:03:17.362Z,101192.03
2022-10-14T09:08:09.522Z,101181.66
2022-10-14T09:13:01.753Z,101176.47
2022-10-14T09:18:00.394Z,101172.09
2022-10-14T09:22:56.508Z,101175.56
2022-10-14T09:32:39.553Z,101179.00
2022-10-14T09:37:33.423Z,101172.91
2022-10-14T09:42:25.948Z,101170.31
2022-10-14T09:47:19.253Z,101168.56
2022-10-14T09:52:09.358Z,101160.78
2022-10-14T09:57:07.425Z,101163.41
2022-10-14T10:01:58.289Z,101152.97
2022-10-14T10:06:54.836Z,101146.88
2022-10-14T10:11:44.719Z,101155.53
2022-10-14T10:16:37.961Z,101154.63
2022-10-14T10:21:30.168Z,101150.28
2022-10-14T10:26:26.036Z,101145.94
2022-10-14T10:31:23.677Z,101150.25
2022-10-14T10:36:20.469Z,101143.28
2022-10-14T10:41:19.867Z,101141.59
2022-10-14T10:46:23.401Z,101147.66
2022-10-14T10:51:15.595Z,101134.63
2022-10-14T10:56:16.203Z,101132.88
2022-10-14T11:01:14.010Z,101124.19
2022-10-14T11:06:11.353Z,101128.50
2022-10-14T11:11:16.846Z,101124.16
2022-10-14T11:16:11.390Z,101119.81
2022-10-14T11:21:06.635Z,101106.81
2022-10-14T11:26:00.503Z,101096.41
2022-10-14T11:30:52.922Z,101086.84
2022-10-14T11:35:52.706Z,101084.25
2022-10-14T11:40:45.290Z,101078.16
2022-10-14T11:45:52.606Z,101092.00
2022-10-14T11:50:44.744Z,101078.13
2022-10-14T11:55:43.298Z,101072.91
2022-10-14T12:00:37.079Z,101065.16
2022-10-14T12:05:34.340Z,101062.56
2022-10-14T12:10:26.909Z,101056.50
2022-10-14T12:15:23.210Z,101046.97
2022-10-14T12:20:20.162Z,101051.22
2022-10-14T12:25:14.209Z,101038.19
2022-10-14T12:30:04.005Z,101044.19
2022-10-14T12:34:57.026Z,101054.56
2022-10-14T12:39:46.771Z,101051.94
2022-10-14T12:44:38.218Z,101049.34
2022-10-14T12:49:30.820Z,101049.31
2022-10-14T12:54:23.143Z,101045.00
2022-10-14T12:59:26.024Z,101046.66
2022-10-14T13:04:21.269Z,101043.13
2022-10-14T13:09:26.960Z,101046.56
2022-10-14T13:14:27.865Z,101044.72
2022-10-14T13:19:34.278Z,101043.78
2022-10-14T13:24:26.974Z,101034.88
2022-10-14T13:29:19.686Z,101040.63
2022-10-14T13:34:16.424Z,101033.56
2022-10-14T13:39:07.046Z,101032.50
2022-10-14T13:43:58.425Z,101032.41
2022-10-14T13:48:49.587Z,101016.09
2022-10-14T13:53:52.504Z,101015.34
2022-10-14T13:58:44.451Z,101011.03
2022-10-14T14:03:35.624Z,101010.06
2022-10-14T14:08:40.267Z,101002.22
2022-10-14T14:13:36.719Z,100999.59
2022-10-14T14:18:56.364Z,100999.63
2022-10-14T14:23:54.315Z,100999.66
2022-10-14T14:28:48.004Z,100993.63
2022-10-14T14:33:38.250Z,100994.50
2022-10-14T14:38:31.570Z,100993.75
2022-10-14T14:43:21.014Z,100998.13
2022-10-14T14:48:16.301Z,100999.03
2022-10-14T14:53:06.778Z,100990.44
2022-10-14T14:58:03.088Z,100993.94
2022-10-14T15:03:00.307Z,100996.47
2022-10-14T15:07:52.429Z,100991.22
2022-10-14T15:12:42.648Z,100988.63
2022-10-14T15:17:34.368Z,100985.22
2022-10-14T15:22:29.926Z,100971.38
2022-10-14T15:27:45.721Z,100969.63
2022-10-14T15:32:38.397Z,100969.72
2022-10-14T15:37:28.151Z,100966.31
2022-10-14T15:42:19.159Z,100949.91
2022-10-14T15:47:24.444Z,100946.47
2022-10-14T15:52:16.823Z,100944.84
2022-10-14T15:57:07.633Z,100939.69
2022-10-14T16:02:00.048Z,100950.09
2022-10-14T16:06:55.031Z,100945.78
2022-10-14T16:11:44.760Z,100955.34
2022-10-14T16:16:36.035Z,100966.66
2022-10-14T16:21:25.452Z,100966.72
2022-10-14T16:26:17.510Z,100958.13
2022-10-14T16:31:07.073Z,100941.69
2022-10-14T16:35:57.270Z,100938.31
2022-10-14T16:40:46.641Z,100931.44
2022-10-14T16:45:38.678Z,100938.44
2022-10-14T16:50:33.828Z,100928.09
2022-10-14T16:55:24.566Z,100929.88
2022-10-14T17:00:14.860Z,100932.50
2022-10-14T17:05:07.482Z,100937.75
2022-10-14T17:09:58.599Z,100943.00
2022-10-14T17:14:48.184Z,100933.53
2022-10-14T17:19:40.634Z,100953.47
2022-10-14T17:24:35.171Z,100959.63
2022-10-14T17:29:24.772Z,100953.59
2022-10-14T17:34:15.376Z,100962.28
2022-10-14T17:39:16.447Z,100956.25
2022-10-14T17:44:13.575Z,100949.34
2022-10-14T17:49:03.916Z,100945.03
2022-10-14T17:53:56.960Z,100933.78
2022-10-14T17:58:48.456Z,100937.22
2022-10-14T18:03:42.764Z,100940.72
2022-10-14T18:08:32.340Z,100939.03
2022-10-14T18:13:22.000Z,100931.28
2022-10-14T18:18:11.508Z,100938.22
2022-10-14T18:23:04.269Z,100924.38
2022-10-14T18:27:53.764Z,100912.31
2022-10-14T18:32:43.310Z,100918.38
2022-10-14T18:37:32.763Z,100920.16
2022-10-14T18:42:25.634Z,100927.13
2022-10-14T18:47:15.245Z,100923.69
2022-10-14T18:52:05.424Z,100914.22
2022-10-14T18:56:59.793Z,100905.56
2022-10-14T19:01:53.574Z,100894.34
2022-10-14T19:06:44.992Z,100896.06
2022-10-14T19:11:36.010Z,100889.19
2022-10-14T19:16:31.481Z,100881.41
2022-10-14T19:21:29.544Z,100889.25
2022-10-14T19:26:21.048Z,100899.66
2022-10-14T19:31:15.088Z,100903.13
2022-10-14T19:36:04.699Z,100904.03
2022-10-14T19:41:00.372Z,100902.31
2022-10-14T19:45:50.413Z,100903.16
2022-10-14T19:50:45.308Z,100890.25
2022-10-14T19:55:39.702Z,100886.78
2022-10-14T20:00:31.998Z,100889.41
2022-10-14T20:05:21.470Z,100885.97
2022-10-14T20:10:11.497Z,100887.69
2022-10-14T20:15:00.846Z,100885.13
2022-10-14T20:19:52.898Z,100886.84
2022-10-14T20:24:43.667Z,100878.22
2022-10-14T20:29:33.166Z,100876.53
2022-10-14T20:34:25.691Z,100882.56
2022-10-14T20:39:17.847Z,100878.25
2022-10-14T20:44:07.577Z,100888.66
2022-10-14T20:49:00.205Z,100886.94
2022-10-14T20:53:49.679Z,100890.41
2022-10-14T20:58:41.868Z,100889.53
2022-10-14T21:03:31.323Z,100893.88
2022-10-14T21:08:25.619Z,100886.97
2022-10-14T21:13:15.116Z,100899.94
2022-10-14T21:18:07.635Z,100893.03
2022-10-14T21:22:57.124Z,100885.22
2022-10-14T21:27:46.658Z,100883.50
2022-10-14T21:32:37.280Z,100882.63
2022-10-14T21:37:29.355Z,100883.50
2022-10-14T21:42:18.836Z,100880.06
2022-10-14T21:47:08.216Z,100877.47
2022-10-14T21:51:57.767Z,100869.66
2022-10-14T21:56:50.846Z,100866.19
2022-10-14T22:01:43.315Z,100852.38
2022-10-14T22:06:33.679Z,100856.72
2022-10-14T22:11:24.352Z,100850.66
2022-10-14T22:16:20.673Z,100846.31
2022-10-14T22:21:10.187Z,100848.91
2022-10-14T22:26:03.040Z,100845.44
2022-10-14T22:30:52.470Z,100845.44
2022-10-14T22:35:44.474Z,100840.25
2022-10-14T22:40:34.695Z,100835.94
2022-10-14T22:45:24.163Z,100835.91
2022-10-14T22:50:13.639Z,100828.13
2022-10-14T22:55:05.723Z,100825.50
2022-10-14T22:59:55.577Z,100816.00
2022-10-14T23:04:47.250Z,100822.06
2022-10-14T23:09:37.170Z,100821.19
2022-10-14T23:14:31.095Z,100819.44
2022-10-14T23:19:21.623Z,100820.28
2022-10-14T23:24:12.833Z,100823.75
2022-10-14T23:29:03.502Z,100822.91
2022-10-14T23:33:56.512Z,100821.16
2022-10-14T23:38:46.548Z,100822.03
2022-10-14T23:43:40.404Z,100830.69
2022-10-14T23:48:37.842Z,100819.44
2022-10-14T23:53:30.193Z,100824.66
2022-10-14T23:58:19.634Z,100815.97
